Rechercher aéroport 
image banner adimage banner adimage banner ad
image banner ad

84CL - Century City

Situé à Los Angeles, United States

ICAO - 84CL, IATA - CCD

Données fournies par Airmate  

Information générale

Coordonnées: N34°3'40" W118°25'3"
Élévation : 473 feet MSL.
Variation magnétique : 14° East
Voir autres Aéroports à California

Données opérationnelles

Special qualification required
Heure actuelle UTC:
Heure actuelle locale:
Météo à : KSMO - Santa Monica Muni ( 6 km )
METAR: KSMO 262151Z 25009KT 10SM FEW012 SCT120 OVC160 21/16 A2995 RMK AO2 SLP140 T02060161
TAF: KSMO 261740Z 2618/2718 00000KT P6SM VCSH FEW120 FM262000 22008KT P6SM VCSH FEW015 OVC100 FM270500 24006KT P6SM BKN012 OVC100 FM270900 VRB03KT P6SM OVC008
Voir NOTAMs / SUP AIP / TFR affectant cet aéroport [VIEW]
Fréquences de communication: [VIEW]

Pistes:

Coordonnées de l'aéroport

Adresse: Los Angeles United States

Vue satellite de 84CL